Time;durP1;ratioP1;P1;durP2;ratioP2;P2;SDS_P1;SDS_P2;PMS_P1;PMS_P2;Temp;Humidity;BMP_temperature;BMP_pressure;BME280_temperature;BME280_humidity;BME280_pressure;Samples;Min_cycle;Max_cycle;Signal;HPM_P1;HPM_P2
2023/05/01 00:00:25;;;;;;;4.17;3.30;;;11.50;99.90;;;;;;5091488;28;20529;-52
2023/05/01 00:02:53;;;;;;;3.80;3.23;;;11.40;99.90;;;;;;5091155;28;20464;-52
2023/05/01 00:05:20;;;;;;;3.37;3.07;;;11.40;99.90;;;;;;5091270;28;20550;-52
2023/05/01 00:07:46;;;;;;;3.33;2.97;;;11.20;99.90;;;;;;5091460;28;20439;-52
2023/05/01 00:10:13;;;;;;;4.30;3.33;;;11.30;99.90;;;;;;5090726;28;20933;-52
2023/05/01 00:12:40;;;;;;;4.20;2.90;;;11.20;99.90;;;;;;5091113;28;20481;-52
2023/05/01 00:15:09;;;;;;;3.53;3.23;;;10.90;99.90;;;;;;5091010;28;20538;-52
2023/05/01 00:17:37;;;;;;;5.90;4.00;;;10.40;99.90;;;;;;5088205;28;20435;-52
2023/05/01 00:20:05;;;;;;;5.23;3.90;;;10.20;99.90;;;;;;5090884;28;20435;-52
2023/05/01 00:22:31;;;;;;;4.50;3.37;;;10.10;99.90;;;;;;5090851;28;20449;-52
2023/05/01 00:24:58;;;;;;;5.33;3.70;;;10.10;99.90;;;;;;5091545;28;20564;-51
2023/05/01 00:27:26;;;;;;;4.10;3.70;;;10.20;99.90;;;;;;5091407;28;20549;-52
2023/05/01 00:29:53;;;;;;;3.93;3.53;;;10.50;99.90;;;;;;5091000;28;20828;-52
2023/05/01 00:32:19;;;;;;;4.30;3.33;;;10.70;99.90;;;;;;5091419;28;20469;-52
2023/05/01 00:34:48;;;;;;;3.60;2.90;;;10.80;99.90;;;;;;5091104;28;20940;-51
2023/05/01 00:37:16;;;;;;;3.70;3.30;;;10.90;99.90;;;;;;5091385;28;20482;-52
2023/05/01 00:39:43;;;;;;;4.10;3.70;;;10.80;99.90;;;;;;5091248;28;20442;-52
2023/05/01 00:42:10;;;;;;;4.13;3.37;;;10.80;99.90;;;;;;5091181;28;20486;-52
2023/05/01 00:44:37;;;;;;;3.73;3.27;;;10.70;99.90;;;;;;5090138;28;20531;-52
2023/05/01 00:47:04;;;;;;;5.10;4.40;;;10.50;99.90;;;;;;5088861;28;20477;-52
2023/05/01 00:49:31;;;;;;;5.00;3.57;;;10.50;99.90;;;;;;5089525;28;20964;-52
2023/05/01 00:52:00;;;;;;;3.80;3.40;;;10.60;99.90;;;;;;5089155;28;20966;-52
2023/05/01 00:54:28;;;;;;;4.80;3.33;;;10.60;99.90;;;;;;5089476;28;20637;-52
2023/05/01 00:56:55;;;;;;;3.50;3.20;;;10.50;99.90;;;;;;5090002;28;20526;-52
2023/05/01 00:59:22;;;;;;;5.23;4.17;;;10.50;99.90;;;;;;5089696;28;20878;-52
2023/05/01 01:01:50;;;;;;;7.50;5.77;;;10.70;99.90;;;;;;5091092;28;20449;-50
2023/05/01 01:04:17;;;;;;;9.40;6.70;;;10.70;99.90;;;;;;5090606;28;20488;-51
2023/05/01 01:06:55;;;;;;;4.20;3.60;;;10.80;99.90;;;;;;5090903;28;20794;-51
2023/05/01 01:09:31;;;;;;;3.50;3.20;;;10.90;99.90;;;;;;5091040;28;20703;-52
2023/05/01 01:12:06;;;;;;;3.70;3.40;;;10.80;99.90;;;;;;5091005;28;20443;-52
2023/05/01 01:14:39;;;;;;;4.67;3.20;;;10.90;99.90;;;;;;5090768;28;20457;-53
2023/05/01 01:17:16;;;;;;;3.23;2.93;;;10.80;99.90;;;;;;5090930;28;20474;-52
2023/05/01 01:20:14;;;;;;;5.23;3.20;;;10.70;99.90;;;;;;5090791;28;20481;-52
2023/05/01 01:22:47;;;;;;;4.77;3.10;;;10.80;99.90;;;;;;5089890;28;20535;-52
2023/05/01 01:25:33;;;;;;;3.70;3.17;;;10.80;99.90;;;;;;5090764;28;20474;-53
2023/05/01 01:28:24;;;;;;;3.80;3.50;;;10.60;99.90;;;;;;5090529;28;20533;-52
2023/05/01 01:31:15;;;;;;;4.30;3.43;;;10.70;99.90;;;;;;5089512;28;20439;-53
2023/05/01 01:33:54;;;;;;;3.43;3.13;;;10.80;99.90;;;;;;5085425;28;20497;-52
2023/05/01 01:36:28;;;;;;;5.90;3.87;;;10.80;99.90;;;;;;5089084;28;20822;-51
2023/05/01 01:39:03;;;;;;;4.30;3.90;;;10.80;99.90;;;;;;5089005;28;21000;-52
2023/05/01 01:41:33;;;;;;;4.20;3.80;;;10.00;99.90;;;;;;5092846;28;20446;-53
2023/05/01 01:44:05;;;;;;;4.60;3.70;;;10.00;99.90;;;;;;5092478;28;20511;-51
2023/05/01 01:46:37;;;;;;;5.20;4.10;;;10.10;99.90;;;;;;5092311;28;20583;-52
2023/05/01 01:49:11;;;;;;;4.20;3.80;;;9.90;99.90;;;;;;5092375;28;20484;-52
2023/05/01 01:51:41;;;;;;;5.00;4.50;;;9.60;99.90;;;;;;5092540;28;21215;-52
2023/05/01 01:54:11;;;;;;;4.47;4.07;;;9.70;99.90;;;;;;5092349;28;20584;-52
2023/05/01 01:56:40;;;;;;;5.30;3.90;;;9.70;99.90;;;;;;5093328;28;20443;-52
2023/05/01 01:59:09;;;;;;;5.77;4.40;;;9.90;99.90;;;;;;5093905;28;20883;-52
2023/05/01 02:01:39;;;;;;;4.97;4.30;;;10.00;99.90;;;;;;5094163;28;20498;-52
2023/05/01 02:04:08;;;;;;;5.13;4.00;;;10.10;99.90;;;;;;5094074;28;20479;-52
2023/05/01 02:06:37;;;;;;;3.90;3.60;;;10.20;99.90;;;;;;5093535;28;20447;-52
2023/05/01 02:09:06;;;;;;;3.57;3.10;;;10.30;99.90;;;;;;5093428;28;20887;-52
2023/05/01 02:11:36;;;;;;;4.07;3.60;;;10.40;99.90;;;;;;5093720;28;20507;-52
2023/05/01 02:14:04;;;;;;;5.50;4.03;;;10.40;99.90;;;;;;5093453;28;20453;-52
2023/05/01 02:16:33;;;;;;;4.50;3.70;;;10.40;99.90;;;;;;5092091;28;20535;-51
2023/05/01 02:19:02;;;;;;;3.70;3.40;;;10.50;99.90;;;;;;5091721;28;20822;-52
2023/05/01 02:21:32;;;;;;;3.83;3.43;;;10.40;99.90;;;;;;5092102;28;20813;-52
2023/05/01 02:24:01;;;;;;;5.40;3.80;;;10.40;99.90;;;;;;5091372;28;20515;-52
2023/05/01 02:26:29;;;;;;;4.30;3.90;;;10.50;99.90;;;;;;5091791;28;20453;-52
2023/05/01 02:28:57;;;;;;;3.37;3.07;;;10.50;99.90;;;;;;5091648;28;20541;-52
2023/05/01 02:31:24;;;;;;;3.93;3.50;;;10.40;99.90;;;;;;5093231;28;20445;-51
2023/05/01 02:33:51;;;;;;;4.00;3.60;;;10.20;99.90;;;;;;5093095;28;20457;-53
2023/05/01 02:36:17;;;;;;;5.03;4.20;;;10.20;99.90;;;;;;5093449;28;20537;-52
2023/05/01 02:38:49;;;;;;;3.30;3.00;;;10.20;99.90;;;;;;5092956;28;20531;-51
2023/05/01 02:41:17;;;;;;;3.37;3.07;;;10.30;99.90;;;;;;5093040;28;20474;-52
2023/05/01 02:43:47;;;;;;;4.60;4.20;;;10.20;99.90;;;;;;5092702;28;20551;-52
2023/05/01 02:46:16;;;;;;;3.60;3.20;;;10.10;99.90;;;;;;5092773;28;20816;-52
2023/05/01 02:48:44;;;;;;;6.00;4.10;;;10.10;99.90;;;;;;5092949;28;20483;-51
2023/05/01 02:51:11;;;;;;;5.50;3.50;;;10.20;99.90;;;;;;5092270;28;20485;-51
2023/05/01 02:53:39;;;;;;;4.43;3.63;;;10.10;99.90;;;;;;5092974;28;21016;-51
2023/05/01 02:56:08;;;;;;;4.03;3.07;;;10.10;99.90;;;;;;5092726;28;20445;-52
2023/05/01 02:58:35;;;;;;;5.70;4.00;;;10.10;99.90;;;;;;5093086;28;20465;-51
2023/05/01 03:01:02;;;;;;;5.30;3.83;;;10.00;99.90;;;;;;5092797;28;20445;-53
2023/05/01 03:03:29;;;;;;;4.40;4.00;;;9.90;99.90;;;;;;5092377;28;20504;-52
2023/05/01 03:05:57;;;;;;;3.93;3.53;;;9.60;99.90;;;;;;5092741;28;20443;-52
2023/05/01 03:08:24;;;;;;;4.40;3.70;;;9.70;99.90;;;;;;5091467;28;20487;-51
2023/05/01 03:10:51;;;;;;;4.43;4.00;;;9.90;99.90;;;;;;5092447;28;20983;-52
2023/05/01 03:13:19;;;;;;;4.73;3.80;;;10.00;99.90;;;;;;5092377;28;20476;-51
2023/05/01 03:15:46;;;;;;;4.47;3.97;;;10.00;99.90;;;;;;5092647;28;20533;-52
2023/05/01 03:18:13;;;;;;;4.47;4.07;;;10.00;99.90;;;;;;5091517;28;20804;-53
2023/05/01 03:20:40;;;;;;;4.20;3.73;;;10.00;99.90;;;;;;5092804;28;20524;-51
2023/05/01 03:23:08;;;;;;;6.27;4.47;;;9.80;99.90;;;;;;5091866;28;20452;-51
2023/05/01 03:25:35;;;;;;;5.47;4.93;;;9.60;99.90;;;;;;5092426;28;20477;-51
2023/05/01 03:28:02;;;;;;;5.50;4.30;;;9.70;99.90;;;;;;5092090;28;20445;-51
2023/05/01 03:30:33;;;;;;;5.07;4.57;;;9.90;99.90;;;;;;5092490;28;20479;-52
2023/05/01 03:33:00;;;;;;;5.27;4.50;;;10.10;99.90;;;;;;5091992;28;20480;-52
2023/05/01 03:35:27;;;;;;;4.10;3.23;;;9.90;99.90;;;;;;5092048;28;20528;-51
2023/05/01 03:37:55;;;;;;;5.00;4.00;;;10.00;99.90;;;;;;5091919;28;20957;-52
2023/05/01 03:40:22;;;;;;;4.10;3.40;;;10.10;99.90;;;;;;5092191;28;20434;-52
2023/05/01 03:42:49;;;;;;;4.40;3.97;;;10.00;99.90;;;;;;5092350;28;20456;-52
2023/05/01 03:45:16;;;;;;;3.27;2.97;;;10.10;99.90;;;;;;5091802;28;21015;-51
2023/05/01 03:47:44;;;;;;;3.20;2.90;;;9.90;99.90;;;;;;5091449;28;20448;-51
2023/05/01 03:50:11;;;;;;;4.57;3.73;;;9.70;99.90;;;;;;5091796;28;20533;-52
2023/05/01 03:52:38;;;;;;;4.77;4.27;;;9.80;99.90;;;;;;5092076;28;20450;-53
2023/05/01 03:55:06;;;;;;;4.40;3.87;;;9.90;99.90;;;;;;5091726;28;20548;-51
2023/05/01 03:57:34;;;;;;;4.47;3.70;;;9.90;99.90;;;;;;5092225;28;20449;-52
2023/05/01 04:00:01;;;;;;;6.20;3.87;;;9.80;99.90;;;;;;5091587;28;20499;-51
2023/05/01 04:02:27;;;;;;;4.83;3.90;;;9.80;99.90;;;;;;5091225;28;20532;-51
2023/05/01 04:04:56;;;;;;;4.53;4.13;;;9.90;99.90;;;;;;5090701;28;20529;-51
2023/05/01 04:07:24;;;;;;;4.40;4.00;;;9.90;99.90;;;;;;5091567;28;20501;-53
2023/05/01 04:09:50;;;;;;;3.80;3.40;;;9.70;99.90;;;;;;5091549;28;20523;-51
2023/05/01 04:12:17;;;;;;;5.20;4.57;;;9.60;99.90;;;;;;5091478;28;20520;-52
2023/05/01 04:14:45;;;;;;;4.80;4.37;;;9.60;99.90;;;;;;5090877;28;20543;-51
2023/05/01 04:17:12;;;;;;;6.13;4.53;;;9.60;99.90;;;;;;5091637;28;20436;-51
2023/05/01 04:19:40;;;;;;;4.60;4.03;;;9.60;99.90;;;;;;5089626;28;20510;-52
2023/05/01 04:22:08;;;;;;;4.20;3.20;;;9.70;99.90;;;;;;5090274;28;20439;-55
2023/05/01 04:24:35;;;;;;;5.13;3.57;;;9.60;99.90;;;;;;5089182;28;20930;-51
2023/05/01 04:27:02;;;;;;;4.27;3.90;;;9.50;99.90;;;;;;5089850;28;20791;-54
2023/05/01 04:29:29;;;;;;;5.37;4.47;;;9.30;99.90;;;;;;5089868;28;20440;-51
2023/05/01 04:31:56;;;;;;;4.53;3.60;;;9.50;99.90;;;;;;5089792;28;20487;-52
2023/05/01 04:34:23;;;;;;;5.00;3.63;;;9.50;99.90;;;;;;5090108;28;20470;-51
2023/05/01 04:36:50;;;;;;;3.90;3.57;;;9.60;99.90;;;;;;5091171;28;20442;-51
2023/05/01 04:39:19;;;;;;;5.90;3.40;;;9.70;99.90;;;;;;5091180;28;20454;-52
2023/05/01 04:41:45;;;;;;;3.80;3.30;;;9.60;99.90;;;;;;5091187;28;20508;-51
2023/05/01 04:44:12;;;;;;;5.20;3.63;;;9.90;99.90;;;;;;5090625;28;20515;-51
2023/05/01 04:46:39;;;;;;;4.50;4.10;;;10.00;99.90;;;;;;5090733;28;20532;-52
2023/05/01 04:49:06;;;;;;;4.70;3.70;;;9.90;99.90;;;;;;5090544;28;20859;-51
2023/05/01 04:51:33;;;;;;;4.33;3.73;;;9.70;99.90;;;;;;5090901;28;20467;-53
2023/05/01 04:54:00;;;;;;;5.73;4.93;;;9.80;99.90;;;;;;5090574;28;20548;-51
2023/05/01 04:56:28;;;;;;;5.00;4.47;;;9.70;99.90;;;;;;5091192;28;20481;-51
2023/05/01 04:58:55;;;;;;;4.53;4.07;;;9.80;99.90;;;;;;5090949;28;20469;-51
2023/05/01 05:01:22;;;;;;;4.17;3.83;;;10.00;99.90;;;;;;5090927;28;20465;-52
2023/05/01 05:03:49;;;;;;;5.73;3.97;;;9.90;99.90;;;;;;5090792;28;20500;-51
2023/05/01 05:06:15;;;;;;;4.50;4.10;;;10.00;99.90;;;;;;5090653;28;20568;-52
2023/05/01 05:08:42;;;;;;;5.13;4.57;;;10.20;99.90;;;;;;5090716;28;20526;-52
2023/05/01 05:11:09;;;;;;;4.50;4.10;;;10.30;99.90;;;;;;5090728;28;20877;-51
2023/05/01 05:13:38;;;;;;;4.73;4.23;;;10.30;99.90;;;;;;5090693;28;20464;-52
2023/05/01 05:16:05;;;;;;;5.43;4.93;;;10.20;99.90;;;;;;5094415;28;20520;-53
2023/05/01 05:18:32;;;;;;;6.13;5.50;;;10.00;99.90;;;;;;5094033;28;20469;-51
2023/05/01 05:21:03;;;;;;;6.77;5.20;;;9.90;99.90;;;;;;5094830;28;20438;-51
2023/05/01 05:23:30;;;;;;;5.00;4.50;;;9.70;99.90;;;;;;5093954;28;20544;-51
2023/05/01 05:25:58;;;;;;;5.47;4.67;;;9.70;99.90;;;;;;5094373;28;20566;-52
2023/05/01 05:28:25;;;;;;;5.53;4.47;;;9.70;99.90;;;;;;5094598;28;20489;-51
2023/05/01 05:30:54;;;;;;;5.00;4.50;;;9.70;99.90;;;;;;5094400;28;20543;-52
2023/05/01 05:33:21;;;;;;;5.93;5.13;;;9.90;99.90;;;;;;5094222;28;20482;-51
2023/05/01 05:35:49;;;;;;;5.33;4.77;;;10.00;99.90;;;;;;5094727;28;20441;-51
2023/05/01 05:38:16;;;;;;;7.10;5.50;;;10.20;99.90;;;;;;5094265;28;20451;-51
2023/05/01 05:40:43;;;;;;;5.17;4.63;;;10.50;99.90;;;;;;5094173;28;20528;-52
2023/05/01 05:43:10;;;;;;;5.60;5.10;;;10.50;99.90;;;;;;5093975;28;20473;-51
2023/05/01 05:45:37;;;;;;;5.70;5.20;;;10.40;99.90;;;;;;5093623;28;20482;-52
2023/05/01 05:48:05;;;;;;;6.83;6.17;;;10.30;99.90;;;;;;5094006;28;20492;-52
2023/05/01 05:50:32;;;;;;;7.10;5.07;;;10.30;99.90;;;;;;5094439;28;20451;-51
2023/05/01 05:52:59;;;;;;;6.93;5.37;;;10.30;99.90;;;;;;5093823;28;20900;-51
2023/05/01 05:55:26;;;;;;;6.47;5.33;;;10.40;99.90;;;;;;5093850;28;20457;-52
2023/05/01 05:57:53;;;;;;;6.20;5.47;;;10.30;99.90;;;;;;5093782;28;20444;-52
2023/05/01 06:00:20;;;;;;;7.70;5.47;;;10.30;99.90;;;;;;5093909;28;20505;-52
2023/05/01 06:02:47;;;;;;;7.87;5.70;;;10.20;99.90;;;;;;5093741;28;20890;-51
2023/05/01 06:05:16;;;;;;;6.00;5.47;;;10.20;99.90;;;;;;5093955;28;20813;-51
2023/05/01 06:07:43;;;;;;;6.13;5.50;;;10.40;99.90;;;;;;5093913;28;20956;-51
2023/05/01 06:10:11;;;;;;;5.57;4.90;;;10.50;99.90;;;;;;5083242;28;20456;-51
2023/05/01 06:12:38;;;;;;;6.80;6.20;;;10.60;99.90;;;;;;5073362;28;20437;-51
2023/05/01 06:15:06;;;;;;;7.83;6.00;;;10.60;99.90;;;;;;5073599;28;20464;-52
2023/05/01 06:17:34;;;;;;;6.87;5.30;;;10.50;99.90;;;;;;5073374;28;20473;-54
2023/05/01 06:20:04;;;;;;;6.50;6.00;;;10.40;99.90;;;;;;5073075;28;20537;-51
2023/05/01 06:22:32;;;;;;;8.00;6.37;;;10.50;99.90;;;;;;5072576;28;20946;-51
2023/05/01 06:24:59;;;;;;;7.70;6.90;;;10.40;99.90;;;;;;5073376;28;20570;-51
2023/05/01 06:27:26;;;;;;;7.67;6.67;;;10.30;99.90;;;;;;5072138;28;20508;-52
2023/05/01 06:29:53;;;;;;;7.83;6.53;;;10.30;99.90;;;;;;5073190;28;20516;-51
2023/05/01 06:32:20;;;;;;;8.50;7.10;;;10.60;99.90;;;;;;5073014;28;20987;-53
2023/05/01 06:34:46;;;;;;;5.93;5.40;;;10.70;99.90;;;;;;5072898;28;20521;-50
2023/05/01 06:37:13;;;;;;;7.10;6.47;;;10.70;99.90;;;;;;5072975;28;20497;-52
2023/05/01 06:39:42;;;;;;;6.20;5.70;;;10.70;99.90;;;;;;5072380;28;20558;-52
2023/05/01 06:42:10;;;;;;;8.40;6.27;;;10.70;99.90;;;;;;5072786;28;20487;-52
2023/05/01 06:44:37;;;;;;;6.50;5.77;;;10.60;99.90;;;;;;5072103;28;20497;-51
2023/05/01 06:47:04;;;;;;;6.10;5.40;;;10.70;99.90;;;;;;5072500;28;20767;-51
2023/05/01 06:49:32;;;;;;;7.57;6.30;;;10.80;99.90;;;;;;5072516;28;20482;-51
2023/05/01 06:51:59;;;;;;;6.53;5.20;;;10.70;99.90;;;;;;5073126;28;20456;-51
2023/05/01 06:54:26;;;;;;;6.90;6.17;;;10.80;99.90;;;;;;5072227;28;21054;-52
2023/05/01 06:56:54;;;;;;;7.00;6.13;;;10.80;99.90;;;;;;5092258;28;20975;-53
2023/05/01 06:59:21;;;;;;;6.30;5.70;;;10.90;99.90;;;;;;5092765;28;20529;-52
2023/05/01 07:01:48;;;;;;;6.17;5.57;;;11.10;99.90;;;;;;5092851;28;20446;-52
2023/05/01 07:04:15;;;;;;;6.13;5.53;;;11.10;99.90;;;;;;5092447;28;20553;-51
2023/05/01 07:06:42;;;;;;;5.90;5.27;;;11.00;99.90;;;;;;5092719;28;20576;-52
2023/05/01 07:09:10;;;;;;;6.90;6.17;;;11.10;99.90;;;;;;5092517;28;20524;-51
2023/05/01 07:11:37;;;;;;;6.67;6.00;;;11.10;99.90;;;;;;5092889;28;20949;-51
2023/05/01 07:14:05;;;;;;;6.03;5.43;;;11.20;99.90;;;;;;5092564;28;20517;-52
2023/05/01 07:16:32;;;;;;;6.33;5.70;;;11.20;99.90;;;;;;5092526;28;20521;-52
2023/05/01 07:18:59;;;;;;;5.80;5.20;;;10.90;99.90;;;;;;5092198;28;20527;-51
2023/05/01 07:21:26;;;;;;;6.17;5.57;;;11.00;99.90;;;;;;5094113;28;20791;-53
2023/05/01 07:23:53;;;;;;;5.40;4.90;;;11.00;99.90;;;;;;5086848;28;20542;-52
2023/05/01 07:26:20;;;;;;;5.20;4.77;;;11.10;99.90;;;;;;5079155;28;21015;-51
2023/05/01 07:28:47;;;;;;;5.20;4.40;;;11.30;99.90;;;;;;5091582;28;20439;-51
2023/05/01 07:31:15;;;;;;;7.50;6.70;;;11.30;99.90;;;;;;5089803;28;20485;-52
2023/05/01 07:33:42;;;;;;;5.17;4.77;;;11.60;99.90;;;;;;5090756;28;20466;-51
2023/05/01 07:36:10;;;;;;;5.20;4.70;;;11.60;99.90;;;;;;5086409;28;20483;-51
2023/05/01 07:38:37;;;;;;;7.27;6.57;;;11.60;99.90;;;;;;5081556;28;20818;-52
2023/05/01 07:41:04;;;;;;;6.27;5.67;;;11.80;99.90;;;;;;5088265;28;21030;-51
2023/05/01 07:43:31;;;;;;;4.43;4.00;;;11.80;99.90;;;;;;5090324;28;20800;-51
2023/05/01 07:46:00;;;;;;;5.53;4.10;;;11.80;99.90;;;;;;5090478;28;20513;-52
2023/05/01 07:48:29;;;;;;;4.50;3.90;;;12.00;99.90;;;;;;5074641;28;20458;-51
2023/05/01 07:50:56;;;;;;;4.83;4.37;;;11.90;99.90;;;;;;5071712;28;20509;-52
2023/05/01 07:53:23;;;;;;;4.40;3.67;;;12.00;99.90;;;;;;5071471;28;20860;-51
2023/05/01 07:55:50;;;;;;;3.43;3.13;;;11.90;99.90;;;;;;5084119;28;20530;-52
2023/05/01 07:58:17;;;;;;;5.00;3.50;;;12.00;99.90;;;;;;5087234;28;20525;-51
2023/05/01 08:00:45;;;;;;;4.47;4.07;;;12.00;99.90;;;;;;5087053;28;20467;-53
2023/05/01 08:03:12;;;;;;;4.80;4.30;;;12.00;99.90;;;;;;5073108;28;20446;-52
2023/05/01 08:05:41;;;;;;;4.60;4.03;;;12.00;99.90;;;;;;5080728;28;20482;-53
2023/05/01 08:08:08;;;;;;;4.70;4.10;;;12.10;99.90;;;;;;5089236;28;20885;-53
2023/05/01 08:10:35;;;;;;;4.63;4.23;;;12.30;99.90;;;;;;5088491;28;20527;-51
2023/05/01 08:13:02;;;;;;;4.60;4.20;;;12.50;99.90;;;;;;5077459;28;20448;-53
2023/05/01 08:15:29;;;;;;;5.63;4.33;;;12.60;99.90;;;;;;5078197;28;20464;-51
2023/05/01 08:17:56;;;;;;;4.83;4.20;;;12.40;99.90;;;;;;5090241;28;20475;-52
2023/05/01 08:20:23;;;;;;;5.27;3.83;;;12.50;99.90;;;;;;5089751;28;20874;-51
2023/05/01 08:22:51;;;;;;;4.20;3.63;;;12.60;99.90;;;;;;5090935;28;20469;-52
2023/05/01 08:25:18;;;;;;;4.30;3.90;;;12.80;99.90;;;;;;5090563;28;20923;-52
2023/05/01 08:27:45;;;;;;;4.30;3.90;;;13.00;99.90;;;;;;5091372;28;20480;-53
2023/05/01 08:30:12;;;;;;;5.17;4.33;;;13.00;99.90;;;;;;5090860;28;20478;-52
2023/05/01 08:32:39;;;;;;;4.93;4.53;;;13.10;99.90;;;;;;5086695;28;20481;-53
2023/05/01 08:35:07;;;;;;;5.33;4.83;;;13.10;99.90;;;;;;5088950;28;20557;-52
2023/05/01 08:37:34;;;;;;;6.13;5.30;;;13.20;99.90;;;;;;5089877;28;20471;-54
2023/05/01 08:40:07;;;;;;;5.13;4.60;;;13.00;99.90;;;;;;5085844;28;20451;-51
2023/05/01 08:42:35;;;;;;;4.90;4.50;;;13.10;99.90;;;;;;5090476;28;20539;-53
2023/05/01 08:45:03;;;;;;;5.10;4.53;;;13.20;99.90;;;;;;5089021;28;20540;-52
2023/05/01 08:47:30;;;;;;;4.77;4.37;;;13.10;99.90;;;;;;5090147;28;20861;-51
2023/05/01 08:49:59;;;;;;;6.27;4.40;;;13.30;99.90;;;;;;5090538;28;20446;-52
2023/05/01 08:52:28;;;;;;;5.60;4.60;;;13.20;99.90;;;;;;5093326;28;20485;-52
2023/05/01 08:54:57;;;;;;;5.27;4.47;;;13.20;99.90;;;;;;5093369;28;20987;-52
2023/05/01 08:57:27;;;;;;;4.17;3.77;;;13.50;99.90;;;;;;5094149;28;20440;-52
2023/05/01 08:59:56;;;;;;;4.07;3.50;;;13.60;99.90;;;;;;5086036;28;20958;-52
2023/05/01 09:02:24;;;;;;;4.40;3.73;;;13.80;99.90;;;;;;5090936;28;20443;-51
2023/05/01 09:04:52;;;;;;;4.27;3.87;;;13.90;99.90;;;;;;5093560;28;20546;-53
2023/05/01 09:07:18;;;;;;;4.50;4.10;;;13.90;99.90;;;;;;5094054;28;21056;-52
2023/05/01 09:09:45;;;;;;;4.43;4.00;;;13.80;99.90;;;;;;5093653;28;20479;-52
2023/05/01 09:12:21;;;;;;;4.23;3.83;;;13.70;99.90;;;;;;5094214;28;20527;-52
2023/05/01 09:14:50;;;;;;;4.20;3.80;;;13.90;99.90;;;;;;5093509;28;20498;-52
2023/05/01 09:17:17;;;;;;;3.60;3.30;;;13.80;99.90;;;;;;5088746;28;20823;-52
2023/05/01 09:19:44;;;;;;;5.03;3.50;;;13.90;99.90;;;;;;5093438;28;20482;-52
2023/05/01 09:22:11;;;;;;;4.03;3.63;;;14.00;99.90;;;;;;5093880;28;20435;-52
2023/05/01 09:24:38;;;;;;;4.07;3.23;;;14.20;99.90;;;;;;5089085;28;20487;-51
2023/05/01 09:27:06;;;;;;;4.40;4.10;;;14.30;99.90;;;;;;5093390;28;21022;-52
2023/05/01 09:29:41;;;;;;;4.03;3.60;;;14.40;99.90;;;;;;5089861;28;20447;-53
2023/05/01 09:32:18;;;;;;;4.23;3.70;;;14.40;99.90;;;;;;5093650;28;20815;-52
2023/05/01 09:34:45;;;;;;;4.10;3.43;;;14.30;99.90;;;;;;5085533;28;20516;-52
2023/05/01 09:37:24;;;;;;;4.57;4.10;;;14.20;99.90;;;;;;5093419;28;20440;-52
2023/05/01 09:40:02;;;;;;;4.60;4.20;;;14.40;99.90;;;;;;5092411;28;20450;-53
2023/05/01 09:42:31;;;;;;;4.50;4.10;;;14.40;99.90;;;;;;5092679;28;20530;-51
2023/05/01 09:44:59;;;;;;;4.90;4.40;;;14.40;99.90;;;;;;5093221;28;20464;-50
2023/05/01 09:47:28;;;;;;;4.17;3.60;;;14.40;99.90;;;;;;5093608;28;20483;-51
2023/05/01 09:49:56;;;;;;;4.27;3.33;;;14.70;99.90;;;;;;5092761;28;20471;-52
2023/05/01 09:52:25;;;;;;;3.27;2.87;;;14.80;99.90;;;;;;5093612;28;20451;-50
2023/05/01 09:55:12;;;;;;;3.53;3.17;;;14.80;99.90;;;;;;5091215;28;20470;-50
2023/05/01 09:57:39;;;;;;;3.57;3.23;;;14.80;99.90;;;;;;5085610;28;20447;-50
2023/05/01 10:00:08;;;;;;;4.40;3.07;;;15.00;99.90;;;;;;5091592;28;20533;-51
2023/05/01 10:02:37;;;;;;;2.73;2.53;;;14.90;99.90;;;;;;5075613;28;20448;-51
2023/05/01 10:05:05;;;;;;;3.43;2.87;;;15.00;99.90;;;;;;5092838;28;20827;-51
2023/05/01 10:07:32;;;;;;;3.67;2.70;;;15.00;99.90;;;;;;5088285;28;20476;-52
2023/05/01 10:10:00;;;;;;;3.13;2.83;;;14.90;99.90;;;;;;5083909;28;20519;-50
2023/05/01 10:12:28;;;;;;;3.90;3.57;;;15.00;99.90;;;;;;5092834;28;20523;-50
2023/05/01 10:14:56;;;;;;;4.33;3.60;;;15.00;99.90;;;;;;5087765;28;20464;-51
2023/05/01 10:17:23;;;;;;;3.73;3.33;;;15.00;99.90;;;;;;5092829;28;20509;-52
2023/05/01 10:19:52;;;;;;;4.40;4.00;;;15.10;99.90;;;;;;5077960;28;21026;-53
2023/05/01 10:22:19;;;;;;;4.40;4.00;;;15.20;99.90;;;;;;5075970;28;20532;-53
2023/05/01 10:24:46;;;;;;;3.80;3.40;;;15.20;99.90;;;;;;5085697;28;20463;-53
2023/05/01 10:27:13;;;;;;;5.27;3.40;;;15.30;99.90;;;;;;5090929;28;20525;-52
2023/05/01 10:29:41;;;;;;;4.10;3.63;;;15.30;99.90;;;;;;5091684;28;20477;-53
2023/05/01 10:32:09;;;;;;;5.40;4.33;;;15.30;99.90;;;;;;5092449;28;20436;-52
2023/05/01 10:34:39;;;;;;;6.03;4.43;;;15.20;99.90;;;;;;5092668;28;20556;-52
2023/05/01 10:37:12;;;;;;;4.23;3.80;;;15.30;99.90;;;;;;5092293;28;20515;-52
2023/05/01 10:39:39;;;;;;;3.77;3.47;;;15.30;99.90;;;;;;5091062;28;20513;-52
2023/05/01 10:42:09;;;;;;;4.07;3.67;;;15.30;99.90;;;;;;5091712;28;20447;-52
2023/05/01 10:44:37;;;;;;;4.37;3.97;;;15.30;99.90;;;;;;5091432;28;20491;-52
2023/05/01 10:47:44;;;;;;;6.07;4.23;;;15.30;99.90;;;;;;5091586;28;20510;-54
2023/05/01 10:50:14;;;;;;;4.43;3.23;;;15.30;99.90;;;;;;5090650;28;20510;-52
2023/05/01 10:53:19;;;;;;;4.00;3.33;;;15.30;99.90;;;;;;5090679;28;20436;-52
2023/05/01 10:55:48;;;;;;;4.57;4.17;;;15.40;99.90;;;;;;5087223;28;20439;-54
2023/05/01 10:58:56;;;;;;;4.03;3.73;;;15.30;99.90;;;;;;5083969;28;20856;-52
2023/05/01 11:01:31;;;;;;;4.10;3.70;;;15.30;99.90;;;;;;5085927;28;20549;-52
2023/05/01 11:03:58;;;;;;;4.80;4.40;;;15.30;99.90;;;;;;5081058;28;20497;-53
2023/05/01 11:06:26;;;;;;;4.27;3.57;;;15.40;99.90;;;;;;5092695;28;20566;-52
2023/05/01 11:08:54;;;;;;;4.10;3.70;;;15.40;99.90;;;;;;5092437;28;20451;-52
2023/05/01 11:11:50;;;;;;;5.43;4.33;;;15.40;99.90;;;;;;5092985;28;20483;-53
2023/05/01 11:14:17;;;;;;;4.00;3.60;;;15.40;99.90;;;;;;5091030;28;20464;-52
2023/05/01 11:16:47;;;;;;;3.97;3.30;;;15.40;99.90;;;;;;5092642;28;20937;-52
2023/05/01 11:19:45;;;;;;;4.10;3.70;;;15.40;99.90;;;;;;5092649;28;20479;-52
2023/05/01 11:22:13;;;;;;;4.90;4.40;;;15.40;99.90;;;;;;5029813;28;20897;-53
2023/05/01 11:24:42;;;;;;;5.03;4.23;;;15.50;99.90;;;;;;5078274;28;20463;-52
2023/05/01 11:27:12;;;;;;;4.40;4.00;;;15.50;99.90;;;;;;5092412;28;20529;-52
2023/05/01 11:29:40;;;;;;;4.93;4.43;;;15.50;99.90;;;;;;5092171;28;20533;-52
2023/05/01 11:32:09;;;;;;;4.17;3.73;;;15.50;99.90;;;;;;5092126;28;20493;-52
2023/05/01 11:34:37;;;;;;;4.83;4.37;;;15.50;99.90;;;;;;5091952;28;20463;-54
2023/05/01 11:37:04;;;;;;;5.60;4.20;;;15.60;99.90;;;;;;5092426;28;20482;-53
2023/05/01 11:39:31;;;;;;;4.80;3.83;;;15.70;99.90;;;;;;5092300;28;20447;-52
2023/05/01 11:42:09;;;;;;;4.20;3.80;;;15.70;99.90;;;;;;5092073;28;20479;-52
2023/05/01 11:44:36;;;;;;;4.70;4.13;;;15.80;99.90;;;;;;5091256;28;20543;-52
2023/05/01 11:47:06;;;;;;;5.23;4.70;;;15.90;99.90;;;;;;5091750;28;21032;-52
2023/05/01 11:49:32;;;;;;;4.17;3.77;;;15.90;99.90;;;;;;5091989;28;20480;-54
2023/05/01 11:51:59;;;;;;;16.47;14.60;;;15.90;99.90;;;;;;5091761;28;20476;-52
2023/05/01 11:54:27;;;;;;;5.40;4.90;;;16.10;99.90;;;;;;5092175;28;20479;-52
2023/05/01 11:57:00;;;;;;;4.10;3.67;;;16.20;99.90;;;;;;5092312;28;20527;-53
2023/05/01 11:59:29;;;;;;;4.10;3.70;;;16.60;99.90;;;;;;5092115;28;20528;-53
2023/05/01 12:01:57;;;;;;;4.17;3.87;;;16.40;99.90;;;;;;5091610;28;20878;-52
2023/05/01 12:04:26;;;;;;;3.77;3.40;;;16.60;99.90;;;;;;5091154;28;20466;-53
2023/05/01 12:06:53;;;;;;;4.53;4.13;;;16.40;99.90;;;;;;5092026;28;20845;-52
2023/05/01 12:09:21;;;;;;;4.30;3.90;;;16.50;99.90;;;;;;5091458;28;20877;-53
2023/05/01 12:11:50;;;;;;;5.33;4.53;;;16.70;99.90;;;;;;5091619;28;20450;-53
2023/05/01 12:14:18;;;;;;;5.30;4.27;;;16.60;99.90;;;;;;5090789;28;20472;-52
2023/05/01 12:16:47;;;;;;;4.33;3.93;;;16.60;99.90;;;;;;5091536;28;20452;-53
2023/05/01 12:19:17;;;;;;;3.97;3.50;;;16.80;99.90;;;;;;5091793;28;20532;-53
2023/05/01 12:21:44;;;;;;;3.60;3.30;;;16.80;99.90;;;;;;5091486;28;20446;-53
2023/05/01 12:24:13;;;;;;;4.60;4.10;;;16.60;99.90;;;;;;5090925;28;20473;-53
2023/05/01 12:26:40;;;;;;;4.17;3.77;;;16.70;99.90;;;;;;5091637;28;20571;-55
2023/05/01 12:29:08;;;;;;;3.90;3.60;;;16.80;99.90;;;;;;5091278;28;20477;-52
2023/05/01 12:31:36;;;;;;;3.67;3.37;;;16.80;99.90;;;;;;5090951;28;20448;-52
2023/05/01 12:34:06;;;;;;;59.83;47.47;;;16.70;99.90;;;;;;5090837;28;20543;-53
2023/05/01 12:36:35;;;;;;;11.90;8.60;;;16.70;99.90;;;;;;5091598;28;21019;-53
2023/05/01 12:39:04;;;;;;;4.83;4.40;;;16.80;99.90;;;;;;5091069;28;20447;-53
2023/05/01 12:41:36;;;;;;;4.10;3.53;;;16.90;99.90;;;;;;5091640;28;20532;-52
2023/05/01 12:44:14;;;;;;;10.03;7.70;;;16.80;99.90;;;;;;5089628;28;20550;-54
2023/05/01 12:46:42;;;;;;;3.53;2.80;;;16.80;99.90;;;;;;5081288;28;20554;-53
2023/05/01 12:49:16;;;;;;;4.20;3.90;;;16.80;99.90;;;;;;5086832;28;20899;-53
2023/05/01 12:51:47;;;;;;;3.73;3.00;;;16.90;99.90;;;;;;5087879;28;20513;-54
2023/05/01 12:54:19;;;;;;;3.37;3.07;;;17.00;99.90;;;;;;5084160;28;20481;-52
2023/05/01 12:56:46;;;;;;;2.67;2.47;;;16.90;99.90;;;;;;5085624;28;20435;-52